createdAt,value
2022-08-03T00:01:37.014Z,100423.72
2022-08-03T00:04:39.822Z,100423.03
2022-08-03T00:07:42.406Z,100420.78
2022-08-03T00:10:45.740Z,100425.50
2022-08-03T00:13:48.397Z,100424.00
2022-08-03T00:16:51.212Z,100428.25
2022-08-03T00:19:53.737Z,100417.16
2022-08-03T00:22:56.555Z,100418.94
2022-08-03T00:25:59.102Z,100416.16
2022-08-03T00:29:02.502Z,100421.62
2022-08-03T00:32:05.269Z,100424.13
2022-08-03T00:35:09.928Z,100413.78
2022-08-03T00:38:15.034Z,100424.50
2022-08-03T00:41:17.779Z,100418.22
2022-08-03T00:44:20.540Z,100416.75
2022-08-03T00:47:23.358Z,100411.28
2022-08-03T00:50:27.179Z,100420.28
2022-08-03T00:53:30.233Z,100416.87
2022-08-03T00:56:32.777Z,100419.72
2022-08-03T00:59:35.724Z,100423.47
2022-08-03T01:02:39.465Z,100426.69
2022-08-03T01:05:52.163Z,100427.56
2022-08-03T01:09:04.086Z,100423.97
2022-08-03T01:12:08.875Z,100422.31
2022-08-03T01:15:32.272Z,100426.19
2022-08-03T01:18:52.042Z,100426.87
2022-08-03T01:22:16.843Z,100421.81
2022-08-03T01:25:19.825Z,100429.25
2022-08-03T01:29:04.931Z,100425.50
2022-08-03T01:32:58.245Z,100427.84
2022-08-03T01:35:42.325Z,100423.97
2022-08-03T01:38:50.474Z,100410.41
2022-08-03T01:41:59.363Z,100427.22
2022-08-03T01:45:03.921Z,100430.19
2022-08-03T01:48:07.692Z,100422.66
2022-08-03T01:51:11.213Z,100420.63
2022-08-03T01:54:14.822Z,100425.19
2022-08-03T01:57:19.251Z,100418.91
2022-08-03T02:00:24.237Z,100424.19
2022-08-03T02:03:29.088Z,100427.22
2022-08-03T02:07:00.696Z,100422.47
2022-08-03T02:09:58.538Z,100425.44
2022-08-03T02:13:01.783Z,100423.13
2022-08-03T02:16:05.388Z,100424.28
2022-08-03T02:19:08.748Z,100418.25
2022-08-03T02:22:13.289Z,100425.41
2022-08-03T02:25:16.564Z,100419.44
2022-08-03T02:28:21.157Z,100423.03
2022-08-03T02:31:27.399Z,100427.66
2022-08-03T02:34:31.847Z,100413.44
2022-08-03T02:37:42.992Z,100415.31
2022-08-03T02:40:55.684Z,100420.50
2022-08-03T02:44:07.170Z,100417.78
2022-08-03T02:47:12.509Z,100426.22
2022-08-03T02:50:17.563Z,100425.50
2022-08-03T02:53:21.749Z,100422.12
2022-08-03T02:56:25.911Z,100419.59
2022-08-03T02:59:31.272Z,100431.13
2022-08-03T03:02:35.106Z,100425.38
2022-08-03T03:05:54.865Z,100428.41
2022-08-03T03:09:00.580Z,100430.34
2022-08-03T03:12:04.482Z,100431.31
2022-08-03T03:15:07.454Z,100428.69
2022-08-03T03:18:10.950Z,100433.41
2022-08-03T03:21:16.202Z,100444.03
2022-08-03T03:24:21.320Z,100443.19
2022-08-03T03:27:24.090Z,100434.31
2022-08-03T03:30:27.943Z,100447.75
2022-08-03T03:33:30.545Z,100445.31
2022-08-03T03:36:33.331Z,100446.09
2022-08-03T03:39:36.500Z,100449.88
2022-08-03T03:42:39.422Z,100443.53
2022-08-03T03:45:44.967Z,100454.03
2022-08-03T03:48:48.262Z,100456.22
2022-08-03T03:51:56.884Z,100452.75
2022-08-03T03:55:01.335Z,100453.94
2022-08-03T03:58:04.768Z,100457.47
2022-08-03T04:01:08.784Z,100458.16
2022-08-03T04:04:30.244Z,100452.66
2022-08-03T04:08:06.705Z,100454.09
2022-08-03T04:11:31.992Z,100467.34
2022-08-03T04:14:36.207Z,100464.78
2022-08-03T04:17:40.504Z,100468.28
2022-08-03T04:20:46.280Z,100460.16
2022-08-03T04:23:53.831Z,100447.88
2022-08-03T04:26:57.554Z,100462.56
2022-08-03T04:30:03.035Z,100462.69
2022-08-03T04:33:06.485Z,100470.69
2022-08-03T04:36:10.000Z,100471.06
2022-08-03T04:39:20.395Z,100470.53
2022-08-03T04:42:25.416Z,100475.28
2022-08-03T04:45:29.139Z,100475.03
2022-08-03T04:48:32.303Z,100467.22
2022-08-03T04:51:34.966Z,100477.37
2022-08-03T04:54:48.748Z,100488.72
2022-08-03T04:57:53.483Z,100491.34
2022-08-03T05:00:56.229Z,100473.06
2022-08-03T05:03:58.857Z,100496.72
2022-08-03T05:07:11.701Z,100484.44
2022-08-03T05:10:16.667Z,100496.75
2022-08-03T05:13:19.603Z,100504.03
2022-08-03T05:16:22.097Z,100500.72
2022-08-03T05:19:25.208Z,100487.97
2022-08-03T05:22:27.669Z,100497.06
2022-08-03T05:25:30.792Z,100502.41
2022-08-03T05:28:33.289Z,100485.84
2022-08-03T05:31:36.059Z,100492.31
2022-08-03T05:34:39.046Z,100492.03
2022-08-03T05:37:42.311Z,100497.94
2022-08-03T05:41:21.961Z,100483.03
2022-08-03T05:44:20.762Z,100500.66
2022-08-03T05:47:23.213Z,100496.94
2022-08-03T05:50:26.098Z,100500.25
2022-08-03T05:53:28.583Z,100503.72
2022-08-03T05:56:31.355Z,100506.19
2022-08-03T05:59:38.373Z,100512.13
2022-08-03T06:02:42.180Z,100505.47
2022-08-03T06:05:55.574Z,100503.28
2022-08-03T06:09:02.941Z,100505.78
2022-08-03T06:12:05.807Z,100505.31
2022-08-03T06:15:11.242Z,100514.00
2022-08-03T06:18:14.553Z,100515.25
2022-08-03T06:21:17.066Z,100517.28
2022-08-03T06:24:19.774Z,100512.22
2022-08-03T06:27:36.602Z,100514.75
2022-08-03T06:30:41.574Z,100516.94
2022-08-03T06:34:30.968Z,100521.28
2022-08-03T06:37:06.771Z,100518.47
2022-08-03T06:40:10.578Z,100522.81
2022-08-03T06:43:16.821Z,100518.94
2022-08-03T06:46:19.843Z,100528.09
2022-08-03T06:49:22.700Z,100522.63
2022-08-03T06:52:37.682Z,100533.16
2022-08-03T06:55:42.483Z,100529.13
2022-08-03T06:58:47.036Z,100537.84
2022-08-03T07:01:49.932Z,100533.38
2022-08-03T07:04:52.580Z,100535.31
2022-08-03T07:07:57.205Z,100537.41
2022-08-03T07:10:59.721Z,100531.78
2022-08-03T07:14:02.617Z,100538.16
2022-08-03T07:17:11.617Z,100536.78
2022-08-03T07:20:15.363Z,100537.69
2022-08-03T07:23:19.098Z,100528.75
2022-08-03T07:26:22.363Z,100527.12
2022-08-03T07:29:25.205Z,100524.56
2022-08-03T07:32:31.108Z,100524.13
2022-08-03T07:35:33.724Z,100522.63
2022-08-03T07:38:37.178Z,100521.31
2022-08-03T07:41:39.693Z,100515.69
2022-08-03T07:44:45.347Z,100514.78
2022-08-03T07:47:53.397Z,100516.06
2022-08-03T07:50:56.758Z,100508.50
2022-08-03T07:54:00.990Z,100507.44
2022-08-03T07:57:04.036Z,100502.94
2022-08-03T08:00:12.518Z,100510.59
2022-08-03T08:03:16.018Z,100499.62
2022-08-03T08:06:18.646Z,100505.50
2022-08-03T08:09:21.455Z,100496.72
2022-08-03T08:12:24.004Z,100504.06
2022-08-03T08:15:26.780Z,100510.19
2022-08-03T08:18:32.380Z,100508.28
2022-08-03T08:22:01.776Z,100504.44
2022-08-03T08:25:04.423Z,100503.22
2022-08-03T08:28:31.804Z,100509.09
2022-08-03T08:31:29.767Z,100506.16
2022-08-03T08:34:32.542Z,100508.41
2022-08-03T08:37:35.700Z,100504.13
2022-08-03T08:40:39.387Z,100507.94
2022-08-03T08:43:42.752Z,100510.53
2022-08-03T08:46:45.713Z,100510.22
2022-08-03T08:50:03.999Z,100500.53
2022-08-03T08:53:18.943Z,100501.75
2022-08-03T08:56:26.116Z,100508.78
2022-08-03T08:59:47.797Z,100503.44
2022-08-03T09:02:51.918Z,100500.47
2022-08-03T09:05:56.074Z,100499.59
2022-08-03T09:09:02.215Z,100506.72
2022-08-03T09:12:37.169Z,100497.69
2022-08-03T09:15:31.429Z,100498.94
2022-08-03T09:18:34.299Z,100487.28
2022-08-03T09:21:36.837Z,100490.88
2022-08-03T09:25:21.560Z,100487.41
2022-08-03T09:28:52.805Z,100485.94
2022-08-03T09:31:46.458Z,100475.50
2022-08-03T09:34:50.503Z,100485.88
2022-08-03T09:38:14.323Z,100483.22
2022-08-03T09:41:20.037Z,100479.69
2022-08-03T09:44:34.362Z,100472.47
2022-08-03T09:47:36.969Z,100463.50
2022-08-03T09:51:13.293Z,100456.22
2022-08-03T09:54:30.296Z,100457.97
2022-08-03T09:57:33.180Z,100450.28
2022-08-03T10:00:54.084Z,100457.09
2022-08-03T10:04:03.064Z,100448.72
2022-08-03T10:07:09.699Z,100449.34
2022-08-03T10:10:30.193Z,100441.69
2022-08-03T10:13:34.612Z,100438.03
2022-08-03T10:16:39.454Z,100434.88
2022-08-03T10:19:42.075Z,100431.69
2022-08-03T10:22:44.873Z,100427.78
2022-08-03T10:25:48.528Z,100431.28
2022-08-03T10:28:53.352Z,100416.37
2022-08-03T10:31:58.987Z,100422.00
2022-08-03T10:35:20.044Z,100420.97
2022-08-03T10:38:32.690Z,100418.16
2022-08-03T10:41:38.525Z,100414.75
2022-08-03T10:44:41.420Z,100408.19
2022-08-03T10:47:44.495Z,100403.28
2022-08-03T10:50:48.869Z,100411.78
2022-08-03T10:53:54.553Z,100402.56
2022-08-03T10:57:17.003Z,100397.63
2022-08-03T11:00:25.795Z,100406.06
2022-08-03T11:03:35.464Z,100403.91
2022-08-03T11:06:38.303Z,100385.06
2022-08-03T11:09:42.204Z,100394.75
2022-08-03T11:12:45.471Z,100390.75
2022-08-03T11:15:50.671Z,100383.37
2022-08-03T11:19:01.044Z,100383.78
2022-08-03T11:22:05.359Z,100377.88
2022-08-03T11:25:08.355Z,100381.25
2022-08-03T11:28:30.925Z,100378.38
2022-08-03T11:31:51.435Z,100392.28
2022-08-03T11:35:12.120Z,100381.41
2022-08-03T11:38:15.082Z,100379.09
2022-08-03T11:41:33.695Z,100375.41
2022-08-03T11:44:47.816Z,100371.28
2022-08-03T11:47:58.635Z,100369.31
2022-08-03T11:51:02.542Z,100368.78
2022-08-03T11:54:07.404Z,100363.00
2022-08-03T11:57:10.362Z,100369.44
2022-08-03T12:00:23.791Z,100360.38
2022-08-03T12:03:33.213Z,100356.16
2022-08-03T12:06:55.292Z,100348.47
2022-08-03T12:10:12.422Z,100349.50
2022-08-03T12:14:45.213Z,100353.06
2022-08-03T12:16:38.679Z,100355.69
2022-08-03T12:19:44.177Z,100347.81
2022-08-03T12:22:46.986Z,100344.31
2022-08-03T12:25:49.715Z,100338.16
2022-08-03T12:28:52.658Z,100344.72
2022-08-03T12:31:56.097Z,100337.44
2022-08-03T12:35:01.563Z,100336.09
2022-08-03T12:38:04.851Z,100332.63
2022-08-03T12:41:16.727Z,100327.06
2022-08-03T12:44:32.706Z,100320.41
2022-08-03T12:47:59.979Z,100329.38
2022-08-03T12:51:11.749Z,100324.13
2022-08-03T12:54:24.247Z,100325.16
2022-08-03T12:57:41.437Z,100320.16
2022-08-03T13:00:55.626Z,100318.16
2022-08-03T13:03:58.210Z,100308.94
2022-08-03T13:07:05.503Z,100308.22
2022-08-03T13:10:10.141Z,100309.44
2022-08-03T13:13:13.256Z,100301.34
2022-08-03T13:16:19.336Z,100296.56
2022-08-03T13:19:22.406Z,100292.41
2022-08-03T13:22:27.414Z,100289.00
2022-08-03T13:25:30.175Z,100290.38
2022-08-03T13:28:32.755Z,100294.25
2022-08-03T13:31:35.627Z,100283.03
2022-08-03T13:34:53.179Z,100274.66
2022-08-03T13:37:56.162Z,100274.09
2022-08-03T13:40:59.882Z,100274.03
2022-08-03T13:44:26.656Z,100275.69
2022-08-03T13:47:25.383Z,100272.03
2022-08-03T13:50:28.407Z,100269.06
2022-08-03T13:53:31.092Z,100271.25
2022-08-03T13:56:34.032Z,100281.09
2022-08-03T13:59:36.670Z,100261.78
2022-08-03T14:02:39.567Z,100265.81
2022-08-03T14:05:45.626Z,100257.06
2022-08-03T14:08:48.363Z,100251.84
2022-08-03T14:12:04.050Z,100249.50
2022-08-03T14:15:13.178Z,100243.31
2022-08-03T14:18:27.520Z,100250.44
2022-08-03T14:21:31.438Z,100246.53
2022-08-03T14:24:34.225Z,100243.63
2022-08-03T14:27:37.221Z,100238.19
2022-08-03T14:30:40.317Z,100237.34
2022-08-03T14:33:42.863Z,100237.66
2022-08-03T14:36:47.269Z,100237.25
2022-08-03T14:40:05.835Z,100237.66
2022-08-03T14:43:08.936Z,100235.34
2022-08-03T14:46:11.472Z,100228.47
2022-08-03T14:50:31.517Z,100225.22
2022-08-03T14:52:36.788Z,100225.38
2022-08-03T14:55:49.837Z,100222.34
2022-08-03T14:58:53.881Z,100217.03
2022-08-03T15:02:05.622Z,100217.91
2022-08-03T15:05:12.797Z,100222.06
2022-08-03T15:08:15.845Z,100209.87
2022-08-03T15:11:18.358Z,100217.19
2022-08-03T15:14:28.320Z,100211.62
2022-08-03T15:17:34.952Z,100210.91
2022-08-03T15:20:44.885Z,100214.41
2022-08-03T15:23:48.656Z,100212.81
2022-08-03T15:26:52.412Z,100215.38
2022-08-03T15:30:07.315Z,100212.56
2022-08-03T15:33:13.242Z,100199.13
2022-08-03T15:36:16.889Z,100213.47
2022-08-03T15:39:19.771Z,100213.03
2022-08-03T15:42:22.322Z,100205.72
2022-08-03T15:45:28.521Z,100200.78
2022-08-03T15:48:39.239Z,100191.72
2022-08-03T15:51:42.051Z,100195.09
2022-08-03T15:54:44.640Z,100192.00
2022-08-03T15:59:09.647Z,100192.75
2022-08-03T16:01:10.807Z,100195.97
2022-08-03T16:04:13.647Z,100196.41
2022-08-03T16:07:16.384Z,100189.97
2022-08-03T16:10:20.612Z,100195.09
2022-08-03T16:13:23.276Z,100193.63
2022-08-03T16:16:46.114Z,100178.44
2022-08-03T16:19:49.317Z,100184.41
2022-08-03T16:22:52.400Z,100187.94
2022-08-03T16:25:54.913Z,100179.94
2022-08-03T16:28:57.794Z,100187.22
2022-08-03T16:32:09.317Z,100173.50
2022-08-03T16:35:19.407Z,100184.13
2022-08-03T16:38:22.478Z,100180.47
2022-08-03T16:41:25.286Z,100184.69
2022-08-03T16:44:49.902Z,100179.28
2022-08-03T16:48:05.993Z,100182.63
2022-08-03T16:51:08.690Z,100180.44
2022-08-03T16:54:12.415Z,100177.06
2022-08-03T16:57:29.746Z,100175.16
2022-08-03T17:00:41.556Z,100175.31
2022-08-03T17:04:02.162Z,100177.91
2022-08-03T17:07:07.792Z,100181.41
2022-08-03T17:10:14.122Z,100187.88
2022-08-03T17:13:21.694Z,100184.94
2022-08-03T17:16:24.866Z,100185.09
2022-08-03T17:19:29.358Z,100186.25
2022-08-03T17:22:37.506Z,100187.69
2022-08-03T17:26:01.503Z,100190.94
2022-08-03T17:29:11.133Z,100195.78
2022-08-03T17:32:21.174Z,100189.00
2022-08-03T17:35:24.437Z,100196.63
2022-08-03T17:38:39.375Z,100192.91
2022-08-03T17:45:08.918Z,100192.72
2022-08-03T17:48:18.883Z,100192.63
2022-08-03T17:51:31.674Z,100197.59
2022-08-03T17:55:55.229Z,100196.87
2022-08-03T17:58:14.939Z,100189.53
2022-08-03T18:02:00.385Z,100193.69
2022-08-03T18:05:16.397Z,100198.50
2022-08-03T18:08:28.644Z,100196.87
2022-08-03T18:11:35.666Z,100197.88
2022-08-03T18:14:57.563Z,100201.41
2022-08-03T18:18:10.904Z,100202.69
2022-08-03T18:21:16.786Z,100207.41
2022-08-03T18:24:21.196Z,100210.66
2022-08-03T18:27:42.740Z,100211.38
2022-08-03T18:30:54.073Z,100213.56
2022-08-03T18:34:19.727Z,100221.97
2022-08-03T18:37:25.207Z,100215.34
2022-08-03T18:40:28.746Z,100212.28
2022-08-03T18:43:46.205Z,100222.00
2022-08-03T18:46:49.339Z,100226.34
2022-08-03T18:50:19.016Z,100223.75
2022-08-03T18:54:03.011Z,100225.66
2022-08-03T18:57:02.073Z,100233.72
2022-08-03T19:00:12.445Z,100236.16
2022-08-03T19:03:23.410Z,100235.84
2022-08-03T19:06:27.852Z,100237.75
2022-08-03T19:09:36.493Z,100240.44
2022-08-03T19:12:44.479Z,100242.06
2022-08-03T19:15:51.487Z,100247.44
2022-08-03T19:18:54.673Z,100248.19
2022-08-03T19:21:58.458Z,100248.06
2022-08-03T19:25:02.363Z,100253.75
2022-08-03T19:28:06.092Z,100258.63
2022-08-03T19:31:10.645Z,100258.34
2022-08-03T19:34:17.992Z,100262.62
2022-08-03T19:37:22.104Z,100257.97
2022-08-03T19:40:27.161Z,100258.28
2022-08-03T19:43:52.654Z,100271.75
2022-08-03T19:47:09.981Z,100262.34
2022-08-03T19:50:15.561Z,100272.09
2022-08-03T19:53:19.253Z,100269.66
2022-08-03T19:56:24.071Z,100269.31
2022-08-03T19:59:27.888Z,100274.22
2022-08-03T20:02:30.927Z,100266.97
2022-08-03T20:05:44.868Z,100277.47
2022-08-03T20:08:54.311Z,100270.41
2022-08-03T20:11:58.960Z,100282.34
2022-08-03T20:15:01.876Z,100290.44
2022-08-03T20:18:04.862Z,100285.06
2022-08-03T20:24:37.339Z,100289.16
2022-08-03T20:28:03.627Z,100279.28
2022-08-03T20:31:09.860Z,100292.00
2022-08-03T20:34:12.362Z,100292.88
2022-08-03T20:37:20.399Z,100290.38
2022-08-03T20:40:27.367Z,100296.38
2022-08-03T20:43:30.730Z,100285.47
2022-08-03T20:46:47.864Z,100288.06
2022-08-03T20:49:57.004Z,100282.41
2022-08-03T20:53:02.851Z,100280.81
2022-08-03T20:56:09.127Z,100279.75
2022-08-03T20:59:15.124Z,100283.16
2022-08-03T21:02:29.649Z,100283.41
2022-08-03T21:05:51.327Z,100282.53
2022-08-03T21:09:00.191Z,100284.03
2022-08-03T21:12:07.771Z,100301.75
2022-08-03T21:13:06.033Z,100196.97
2022-08-03T21:13:10.127Z,100285.69
2022-08-03T21:15:59.573Z,100299.78
2022-08-03T21:18:46.697Z,100299.78
2022-08-03T21:21:50.292Z,100304.19
2022-08-03T21:24:57.315Z,100305.50
2022-08-03T21:28:01.017Z,100300.91
2022-08-03T21:31:03.912Z,100299.59
2022-08-03T21:34:07.238Z,100304.44
2022-08-03T21:37:09.779Z,100309.69
2022-08-03T21:40:17.711Z,100303.16
2022-08-03T21:43:20.615Z,100295.91
2022-08-03T21:46:23.938Z,100305.50
2022-08-03T21:50:04.786Z,100312.84
2022-08-03T21:52:52.115Z,100307.56
2022-08-03T21:55:57.772Z,100317.00
2022-08-03T21:59:05.423Z,100319.81
2022-08-03T22:02:22.656Z,100319.69
2022-08-03T22:05:42.475Z,100314.22
2022-08-03T22:08:47.793Z,100310.84
2022-08-03T22:11:54.139Z,100313.97
2022-08-03T22:15:01.400Z,100316.22
2022-08-03T22:18:05.411Z,100314.87
2022-08-03T22:21:10.289Z,100313.66
2022-08-03T22:24:13.648Z,100315.50
2022-08-03T22:27:33.331Z,100319.44
2022-08-03T22:30:37.082Z,100324.38
2022-08-03T22:33:39.841Z,100336.25
2022-08-03T22:36:42.960Z,100332.00
2022-08-03T22:39:45.606Z,100330.22
2022-08-03T22:42:52.058Z,100336.16
2022-08-03T22:46:10.539Z,100336.97
2022-08-03T22:49:15.540Z,100337.19
2022-08-03T22:52:18.116Z,100347.50
2022-08-03T22:55:24.878Z,100337.41
2022-08-03T22:58:27.767Z,100338.53
2022-08-03T23:01:33.168Z,100338.19
2022-08-03T23:04:39.235Z,100339.09
2022-08-03T23:07:42.891Z,100335.53
2022-08-03T23:10:47.324Z,100341.97
2022-08-03T23:13:54.236Z,100335.47
2022-08-03T23:16:57.132Z,100335.16
2022-08-03T23:20:06.550Z,100341.19
2022-08-03T23:23:09.494Z,100335.78
2022-08-03T23:26:15.751Z,100338.28
2022-08-03T23:29:20.393Z,100331.56
2022-08-03T23:32:25.849Z,100336.00
2022-08-03T23:36:17.213Z,100340.28
2022-08-03T23:39:09.869Z,100338.81
2022-08-03T23:42:14.015Z,100330.84
2022-08-03T23:45:20.602Z,100336.44
2022-08-03T23:48:23.150Z,100334.75
2022-08-03T23:51:47.795Z,100331.22
2022-08-03T23:55:17.335Z,100334.75
2022-08-03T23:58:42.223Z,100330.59
